OE7SBH-WX Weather Reports


Display with metric or nautical units.
time (UTC)temp
F
wind
direction
speed
MPH
gust
MPH
rain 1hr
in
rain 24hr
in
rain mn
in
humidity
%
barometer
mb
20240304102041 54 42 2.0 4.0 0.00 0.00 0.00 45 1012.8
20240304101035 52 333 2.0 4.0 0.00 0.00 0.00 47 1012.8
20240304100024 53 15 1.0 3.0 0.00 0.00 0.00 46 1012.9
20240304095033 54 16 1.0 4.0 0.00 0.00 0.00 46 1012.9
20240304094025 52 10 1.0 2.0 0.00 0.00 0.00 49 1012.9
20240304093033 52 105 1.0 2.0 0.00 0.00 0.00 48 1012.9
20240304092020 52 12 0.0 1.0 0.00 0.00 0.00 49 1013.0
20240304091031 51 83 0.0 1.0 0.00 0.00 0.00 49 1013.0
20240304090018 50 63 1.0 3.0 0.00 0.00 0.00 54 1012.9
20240304085030 50 33 0.0 2.0 0.00 0.00 0.00 55 1013.0
20240304084024 49 35 0.0 1.0 0.00 0.00 0.00 56 1013.0
20240304083028 46 28 0.0 1.0 0.00 0.00 0.00 62 1013.0
20240304082033 46 42 1.0 2.0 0.00 0.00 0.00 67 1013.0
20240304081034 45 45 0.0 2.0 0.00 0.00 0.00 70 1012.9
20240304080021 45 33 1.0 2.0 0.00 0.00 0.00 66 1012.9
20240304075050 44 343 0.0 1.0 0.00 0.00 0.00 70 1012.9
20240304073526 42 344 0.0 1.0 0.00 0.00 0.00 72 1012.8
20240304072619 40 343 0.0 1.0 0.00 0.00 0.00 74 1012.7
20240304071520 38 0.0 0.0 0.00 0.00 0.00 80 1012.9
20240304070530 38 343 0.0 1.0 0.00 0.00 0.00 79 1012.7
20240304065538 38 0.0 0.0 0.00 0.00 0.00 79 1012.5
20240304064531 37 343 1.0 2.0 0.00 0.00 0.00 79 1012.6
20240304063533 37 350 0.0 1.0 0.00 0.00 0.00 80 1012.5
20240304062533 37 350 0.0 1.0 0.00 0.00 0.00 80 1012.3
20240304061523 38 288 0.0 2.0 0.00 0.00 0.00 77 1012.2
20240304060534 37 305 1.0 2.0 0.00 0.00 0.00 79 1012.0
20240304055520 37 305 0.0 1.0 0.00 0.00 0.00 80 1011.9
20240304054533 37 0.0 0.0 0.00 0.00 0.00 80 1011.7
20240304053520 37 0.0 0.0 0.00 0.00 0.00 79 1011.5
20240304052542 38 0.0 0.0 0.00 0.00 0.00 77 1011.4
20240304051558 37 324 3.0 3.0 0.00 0.00 0.00 78 1011.5
20240304050531 37 299 1.0 2.0 0.00 0.00 0.00 77 1011.4
20240304045528 37 2 1.0 2.0 0.00 0.00 0.00 77 1011.4
20240304044538 38 11 1.0 4.0 0.00 0.00 0.00 75 1011.2
20240304043527 39 313 2.0 3.0 0.00 0.00 0.00 71 1010.9
20240304042533 39 347 2.0 3.0 0.00 0.00 0.00 73 1010.7
20240304041522 40 335 0.0 2.0 0.00 0.00 0.00 71 1010.7
20240304040531 40 312 1.0 2.0 0.00 0.00 0.00 71 1010.6
20240304035534 40 345 1.0 1.0 0.00 0.00 0.00 69 1010.7
20240304034533 41 348 1.0 3.0 0.00 0.00 0.00 68 1010.4
20240304033533 40 327 3.0 4.0 0.00 0.00 0.00 69 1010.4
20240304032533 41 334 1.0 3.0 0.00 0.00 0.00 69 1010.0
20240304031552 42 144 2.0 3.0 0.00 0.00 0.00 68 1009.8
20240304030545 42 260 2.0 2.0 0.00 0.00 0.00 63 1009.8
20240304025547 41 269 1.0 2.0 0.00 0.00 0.00 67 1009.8
20240304024533 41 344 1.0 2.0 0.00 0.00 0.00 69 1009.6
20240304023521 41 0.0 0.0 0.00 0.00 0.00 69 1009.8
20240304022536 42 331 1.0 2.0 0.00 0.00 0.00 65 1009.5
20240304021523 41 319 0.0 1.0 0.00 0.00 0.00 67 1009.4
20240304020540 41 11 0.0 1.0 0.00 0.00 0.00 68 1009.4
20240304015534 43 38 1.0 3.0 0.00 0.00 0.00 65 1009.2
20240304014533 43 243 3.0 4.0 0.00 0.00 0.00 61 1009.2
20240304013523 44 173 1.0 2.0 0.00 0.00 0.00 63 1009.3
20240304012525 44 235 1.0 2.0 0.00 0.00 0.00 62 1009.2
20240304011602 44 236 2.0 2.0 0.00 0.00 0.00 59 1009.2
20240304010534 44 221 1.0 2.0 0.00 0.00 0.00 60 1009.1
20240304005521 44 176 1.0 2.0 0.00 0.00 0.00 61 1009.1
20240304004521 43 192 0.0 1.0 0.00 0.00 0.00 66 1009.4
20240304003518 44 182 2.0 2.0 0.00 0.00 0.00 64 1009.2
20240304002534 46 221 1.0 2.0 0.00 0.00 0.00 58 1009.0
20240304001520 45 292 1.0 2.0 0.00 0.00 0.00 60 1009.0
20240304000520 44 295 1.0 2.0 0.00 0.00 0.00 64 1009.0
20240303235538 43 30 1.0 2.0 0.00 0.00 0.00 66 1008.9
20240303234531 44 323 0.0 1.0 0.00 0.00 0.00 64 1008.7
20240303233532 44 64 1.0 2.0 0.00 0.00 0.00 64 1008.7
20240303232525 45 294 0.0 2.0 0.00 0.00 0.00 60 1008.7
20240303231520 45 314 0.0 1.0 0.00 0.00 0.00 61 1008.6
20240303230534 45 34 0.0 1.0 0.00 0.00 0.00 60 1008.6
20240303225521 46 289 0.0 1.0 0.00 0.00 0.00 60 1008.4
20240303224525 45 212 1.0 2.0 0.00 0.00 0.00 61 1008.5
20240303223521 46 22 1.0 2.0 0.00 0.00 0.00 59 1008.4
20240303222554 47 332 2.0 2.0 0.00 0.00 0.00 57 1008.3
20240303221520 47 239 2.0 4.0 0.00 0.00 0.00 56 1008.3
20240303220554 47 67 1.0 2.0 0.00 0.00 0.00 56 1008.2
20240303215521 48 263 1.0 2.0 0.00 0.00 0.00 53 1008.2
20240303214525 48 228 1.0 3.0 0.00 0.00 0.00 53 1007.9
20240303213533 48 346 3.0 6.0 0.00 0.00 0.00 50 1007.9
20240303212553 49 328 2.0 4.0 0.00 0.00 0.00 51 1008.0
20240303211553 49 310 1.0 3.0 0.00 0.00 0.00 49 1007.9
20240303210531 49 334 1.0 3.0 0.00 0.00 0.00 50 1007.8
20240303205534 48 305 1.0 3.0 0.00 0.00 0.00 51 1007.5
20240303204548 49 301 0.0 2.0 0.00 0.00 0.00 47 1007.6
20240303203545 50 323 2.0 4.0 0.00 0.00 0.00 48 1007.4
20240303202526 49 345 3.0 3.0 0.00 0.00 0.00 49 1007.5
20240303201540 49 329 2.0 4.0 0.00 0.00 0.00 49 1007.3
20240303200535 50 334 2.0 3.0 0.00 0.00 0.00 49 1007.2
20240303195520 49 325 2.0 4.0 0.00 0.00 0.00 50 1007.1
20240303194551 49 321 0.0 1.0 0.00 0.00 0.00 53 1007.0
20240303193533 49 327 2.0 4.0 0.00 0.00 0.00 51 1007.0
20240303192553 50 291 2.0 3.0 0.00 0.00 0.00 45 1007.0
20240303191532 51 338 3.0 4.0 0.00 0.00 0.00 47 1006.8
20240303190528 50 331 4.0 6.0 0.00 0.00 0.00 51 1006.9
20240303185523 51 333 3.0 4.0 0.00 0.00 0.00 47 1007.0
20240303184534 53 11 1.0 4.0 0.00 0.00 0.00 40 1006.9
20240303183520 55 301 1.0 2.0 0.00 0.00 0.00 36 1006.9
20240303182527 55 189 3.0 7.0 0.00 0.00 0.00 35 1006.9
20240303181517 55 181 4.0 8.0 0.00 0.00 0.00 35 1007.0
20240303180531 56 162 8.0 22.0 0.00 0.00 0.00 34 1007.0
20240303175517 55 168 5.0 9.0 0.00 0.00 0.00 35 1006.9
20240303174517 54 136 2.0 6.0 0.00 0.00 0.00 38 1006.7
20240303173533 54 343 1.0 4.0 0.00 0.00 0.00 39 1006.5
20240303172528 56 179 3.0 6.0 0.00 0.00 0.00 34 1006.5
20240303171523 56 171 7.0 18.0 0.00 0.00 0.00 34 1006.5
20240303170525 57 163 7.0 14.0 0.00 0.00 0.00 33 1006.4
20240303165523 57 152 6.0 11.0 0.00 0.00 0.00 33 1006.3
20240303164534 57 151 9.0 13.0 0.00 0.00 0.00 32 1006.0
20240303163520 57 160 7.0 15.0 0.00 0.00 0.00 33 1006.0
20240303162525 56 171 4.0 10.0 0.00 0.00 0.00 35 1006.0
20240303161534 57 175 3.0 8.0 0.00 0.00 0.00 35 1006.1
20240303160535 57 158 6.0 19.0 0.00 0.00 0.00 34 1006.1
20240303155533 57 169 4.0 9.0 0.00 0.00 0.00 34 1006.1
20240303154525 57 156 9.0 19.0 0.00 0.00 0.00 34 1006.3
20240303153520 58 153 9.0 16.0 0.00 0.00 0.00 33 1006.2
20240303152551 58 185 4.0 8.0 0.00 0.00 0.00 33 1006.2
20240303151535 58 163 9.0 15.0 0.00 0.00 0.00 32 1006.2
20240303150533 58 158 7.0 14.0 0.00 0.00 0.00 32 1006.1
20240303145529 58 156 8.0 14.0 0.00 0.00 0.00 32 1006.1
20240303144541 58 147 8.0 15.0 0.00 0.00 0.00 32 1006.1
20240303143523 58 156 8.0 14.0 0.00 0.00 0.00 32 1006.1
20240303142534 58 155 8.0 16.0 0.00 0.00 0.00 32 1006.2
20240303141521 58 166 10.0 19.0 0.00 0.00 0.00 31 1006.2
20240303140523 58 156 5.0 13.0 0.00 0.00 0.00 30 1006.2
20240303135517 58 186 5.0 9.0 0.00 0.00 0.00 31 1006.1
20240303134531 58 145 6.0 11.0 0.00 0.00 0.00 30 1006.1
20240303133548 58 150 7.0 14.0 0.00 0.00 0.00 30 1006.3
20240303132528 58 155 6.0 15.0 0.00 0.00 0.00 30 1006.4
20240303131529 58 151 8.0 15.0 0.00 0.00 0.00 30 1006.6
20240303130554 58 159 8.0 14.0 0.00 0.00 0.00 30 1006.5
20240303125517 58 155 9.0 17.0 0.00 0.00 0.00 30 1006.5
20240303124531 58 163 6.0 16.0 0.00 0.00 0.00 29 1006.7
20240303123553 58 143 7.0 11.0 0.00 0.00 0.00 29 1006.8
20240303122519 58 177 4.0 9.0 0.00 0.00 0.00 30 1006.9
20240303121533 58 137 4.0 9.0 0.00 0.00 0.00 30 1006.8
20240303120530 58 347 2.0 6.0 0.00 0.00 0.00 29 1006.8
20240303115533 58 153 4.0 10.0 0.00 0.00 0.00 30 1006.8
20240303114548 58 171 3.0 9.0 0.00 0.00 0.00 30 1006.8
20240303113543 59 169 3.0 13.0 0.00 0.00 0.00 31 1006.8
20240303112534 59 150 5.0 13.0 0.00 0.00 0.00 30 1006.8
20240303111550 59 141 5.0 10.0 0.00 0.00 0.00 31 1006.8
20240303110534 59 147 4.0 8.0 0.00 0.00 0.00 31 1006.9
20240303105520 59 143 5.0 9.0 0.00 0.00 0.00 30 1007.0
20240303104522 59 160 5.0 9.0 0.00 0.00 0.00 31 1007.0
20240303103518 58 162 7.0 18.0 0.00 0.00 0.00 30 1007.1